createdAt,value
2018-09-26T00:00:08.732Z,980.12
2018-09-26T00:01:18.569Z,980.09
2018-09-26T00:02:28.736Z,980.07
2018-09-26T00:03:38.858Z,980.05
2018-09-26T00:04:48.963Z,980.05
2018-09-26T00:05:59.074Z,980.04
2018-09-26T00:07:09.181Z,980.07
2018-09-26T00:08:19.025Z,980.03
2018-09-26T00:09:28.863Z,979.89
2018-09-26T00:10:38.971Z,979.95
2018-09-26T00:11:49.080Z,979.78
2018-09-26T00:12:59.195Z,979.75
2018-09-26T00:14:08.854Z,979.72
2018-09-26T00:15:18.958Z,979.8
2018-09-26T00:16:28.796Z,979.85
2018-09-26T00:17:38.635Z,979.86
2018-09-26T00:18:48.805Z,979.9
2018-09-26T00:19:58.699Z,979.78
2018-09-26T00:21:08.805Z,979.74
2018-09-26T00:22:18.637Z,979.75
2018-09-26T00:23:28.742Z,979.61
2018-09-26T00:24:38.579Z,979.62
2018-09-26T00:25:48.740Z,979.5
2018-09-26T00:26:58.569Z,979.58
2018-09-26T00:28:08.685Z,979.54
2018-09-26T00:29:18.797Z,979.56
2018-09-26T00:30:28.084Z,979.44
2018-09-26T00:31:37.970Z,979.35
2018-09-26T00:32:47.806Z,979.38
2018-09-26T00:33:57.641Z,979.33
2018-09-26T00:35:07.478Z,979.29
2018-09-26T00:36:17.745Z,979.28
2018-09-26T00:37:28.099Z,979.24
2018-09-26T00:38:38.003Z,979.27
2018-09-26T00:39:48.109Z,979.1
2018-09-26T00:40:58.215Z,979.12
2018-09-26T00:42:08.325Z,979.09
2018-09-26T00:43:18.487Z,979.16
2018-09-26T00:44:28.052Z,979.11
2018-09-26T00:45:37.886Z,978.95
2018-09-26T00:46:47.990Z,979.01
2018-09-26T00:47:58.099Z,979.01
2018-09-26T00:49:09.942Z,978.94
2018-09-26T00:50:19.779Z,978.85
2018-09-26T00:51:29.614Z,978.72
2018-09-26T00:52:39.446Z,978.77
2018-09-26T00:53:49.633Z,978.65
2018-09-26T00:54:59.245Z,978.56
2018-09-26T00:56:09.352Z,978.62
2018-09-26T00:57:19.465Z,978.55
2018-09-26T00:58:29.574Z,978.42
2018-09-26T00:59:39.409Z,978.34
2018-09-26T01:00:49.072Z,978.36
2018-09-26T01:01:58.908Z,978.24
2018-09-26T01:03:08.741Z,978.23
2018-09-26T01:04:18.304Z,978.13
2018-09-26T01:05:28.137Z,978.1
2018-09-26T01:06:38.247Z,978.06
2018-09-26T01:07:48.357Z,977.95
2018-09-26T01:08:58.479Z,977.71
2018-09-26T01:10:08.040Z,977.71
2018-09-26T01:11:18.152Z,977.65
2018-09-26T01:12:28.037Z,977.61
2018-09-26T01:13:38.151Z,977.46
2018-09-26T01:14:47.993Z,977.38
2018-09-26T01:15:58.116Z,977.31
2018-09-26T01:17:08.225Z,977.27
2018-09-26T01:18:18.055Z,977.22
2018-09-26T01:19:28.169Z,977.07
2018-09-26T01:20:38.006Z,977.07
2018-09-26T01:21:48.114Z,977.03
2018-09-26T01:22:58.226Z,977.04
2018-09-26T01:24:08.383Z,977.06
2018-09-26T01:25:17.940Z,977.06
2018-09-26T01:26:28.051Z,977.05
2018-09-26T01:27:38.162Z,977.03
2018-09-26T01:28:47.992Z,977.04
2018-09-26T01:29:57.826Z,977.04
2018-09-26T01:31:07.939Z,976.94
2018-09-26T01:32:17.501Z,977.04
2018-09-26T01:33:27.608Z,977.04
2018-09-26T01:34:37.776Z,976.93
2018-09-26T01:35:47.704Z,976.83
2018-09-26T01:36:57.541Z,976.8
2018-09-26T01:38:07.377Z,976.74
2018-09-26T01:39:17.493Z,976.66
2018-09-26T01:40:27.335Z,976.59
2018-09-26T01:41:37.174Z,976.6
2018-09-26T01:42:47.284Z,976.51
2018-09-26T01:43:57.117Z,976.49
2018-09-26T01:45:06.951Z,976.46
2018-09-26T01:46:16.840Z,976.42
2018-09-26T01:47:26.777Z,976.5
2018-09-26T01:48:36.615Z,976.48
2018-09-26T01:49:46.728Z,976.42
2018-09-26T01:50:56.831Z,976.51
2018-09-26T01:52:06.667Z,976.58
2018-09-26T01:53:16.824Z,976.56
2018-09-26T01:54:26.929Z,976.56
2018-09-26T01:55:36.766Z,976.6
2018-09-26T01:56:46.600Z,976.68
2018-09-26T01:57:56.714Z,976.71
2018-09-26T01:59:06.872Z,976.62
2018-09-26T02:00:16.987Z,976.51
2018-09-26T02:01:26.550Z,976.39
2018-09-26T02:02:36.665Z,976.45
2018-09-26T02:03:46.782Z,976.36
2018-09-26T02:04:56.898Z,976.26
2018-09-26T02:06:07.023Z,976.17
2018-09-26T02:07:16.859Z,976.24
2018-09-26T02:08:26.966Z,976.19
2018-09-26T02:09:37.081Z,976.06
2018-09-26T02:10:46.964Z,976.02
2018-09-26T02:11:56.798Z,975.92
2018-09-26T02:13:06.368Z,975.98
2018-09-26T02:14:16.203Z,975.71
2018-09-26T02:15:26.032Z,975.61
2018-09-26T02:16:35.920Z,975.55
2018-09-26T02:17:46.034Z,975.6
2018-09-26T02:18:56.137Z,975.46
2018-09-26T02:20:06.250Z,975.46
2018-09-26T02:21:15.810Z,975.32
2018-09-26T02:22:25.639Z,975.29
2018-09-26T02:23:35.762Z,975.51
2018-09-26T02:24:46.266Z,975.43
2018-09-26T02:25:56.370Z,975.49
2018-09-26T02:27:06.206Z,975.45
2018-09-26T02:28:16.361Z,975.5
2018-09-26T02:29:26.466Z,975.44
2018-09-26T02:30:36.578Z,975.47
2018-09-26T02:31:46.691Z,975.38
2018-09-26T02:32:56.257Z,975.23
2018-09-26T02:34:05.602Z,975.28
2018-09-26T02:35:15.715Z,975.31
2018-09-26T02:36:25.561Z,975.41
2018-09-26T02:37:35.668Z,975.28
2018-09-26T02:38:45.501Z,975.35
2018-09-26T02:39:55.614Z,975.35
2018-09-26T02:41:05.726Z,975.34
2018-09-26T02:42:15.012Z,975.45
2018-09-26T02:43:24.844Z,975.39
2018-09-26T02:44:34.951Z,975.47
2018-09-26T02:45:45.062Z,975.49
2018-09-26T02:46:55.169Z,975.44
2018-09-26T02:48:05.035Z,975.39
2018-09-26T02:49:15.155Z,975.34
2018-09-26T02:50:25.275Z,975.24
2018-09-26T02:51:34.568Z,975.11
2018-09-26T02:52:44.677Z,974.93
2018-09-26T02:53:54.787Z,974.96
2018-09-26T02:55:04.353Z,974.95
2018-09-26T02:56:13.381Z,974.91
2018-09-26T02:57:23.268Z,974.87
2018-09-26T02:58:33.378Z,974.83
2018-09-26T02:59:42.936Z,974.7
2018-09-26T03:00:53.057Z,974.63
2018-09-26T03:02:02.905Z,974.73
2018-09-26T03:03:13.117Z,974.56
2018-09-26T03:04:22.953Z,974.69
2018-09-26T03:05:32.524Z,974.68
2018-09-26T03:06:42.641Z,974.76
2018-09-26T03:07:52.755Z,974.67
2018-09-26T03:09:02.905Z,974.59
2018-09-26T03:10:12.747Z,974.58
2018-09-26T03:11:22.860Z,974.6
2018-09-26T03:12:32.973Z,974.59
2018-09-26T03:13:43.086Z,974.58
2018-09-26T03:14:52.698Z,974.55
2018-09-26T03:16:02.541Z,974.54
2018-09-26T03:17:12.372Z,974.51
2018-09-26T03:18:21.950Z,974.49
2018-09-26T03:19:31.796Z,974.52
2018-09-26T03:20:41.628Z,974.54
2018-09-26T03:21:51.739Z,974.45
2018-09-26T03:23:01.848Z,974.36
2018-09-26T03:24:11.142Z,974.41
2018-09-26T03:25:21.248Z,974.39
2018-09-26T03:26:31.150Z,974.26
2018-09-26T03:27:40.996Z,974.21
2018-09-26T03:28:51.107Z,974
2018-09-26T03:30:00.941Z,974.05
2018-09-26T03:31:11.084Z,974
2018-09-26T03:32:21.223Z,973.97
2018-09-26T03:33:31.363Z,973.88
2018-09-26T03:34:41.346Z,973.88
2018-09-26T03:35:51.183Z,973.84
2018-09-26T03:37:01.290Z,973.88
2018-09-26T03:38:11.400Z,973.85
2018-09-26T03:39:21.258Z,973.87
2018-09-26T03:40:31.367Z,973.84
2018-09-26T03:41:41.226Z,973.85
2018-09-26T03:42:51.341Z,973.8
2018-09-26T03:44:01.224Z,973.81
2018-09-26T03:45:11.335Z,973.8
2018-09-26T03:46:21.182Z,973.74
2018-09-26T03:47:31.306Z,973.72
2018-09-26T03:48:41.140Z,973.72
2018-09-26T03:49:51.036Z,973.62
2018-09-26T03:51:00.872Z,973.53
2018-09-26T03:52:10.703Z,973.53
2018-09-26T03:53:20.821Z,973.49
2018-09-26T03:54:30.940Z,973.48
2018-09-26T03:55:40.864Z,973.44
2018-09-26T03:56:51.001Z,973.35
2018-09-26T03:58:01.138Z,973.26
2018-09-26T03:59:10.732Z,973.27
2018-09-26T04:00:20.590Z,973.21
2018-09-26T04:01:30.777Z,973.11
2018-09-26T04:02:40.911Z,973.08
2018-09-26T04:03:51.051Z,973.12
2018-09-26T04:05:00.710Z,973.07
2018-09-26T04:06:10.651Z,973.06
2018-09-26T04:07:20.515Z,973.07
2018-09-26T04:08:30.377Z,973.12
2018-09-26T04:09:40.508Z,973.18
2018-09-26T04:10:50.649Z,973.1
2018-09-26T04:12:00.785Z,973.11
2018-09-26T04:13:10.815Z,973.05
2018-09-26T04:14:21.173Z,972.91
2018-09-26T04:15:31.387Z,972.89
2018-09-26T04:16:42.032Z,972.9
2018-09-26T04:17:51.890Z,972.93
2018-09-26T04:19:01.815Z,972.93
2018-09-26T04:20:11.986Z,972.93
2018-09-26T04:21:22.453Z,972.93
2018-09-26T04:22:32.593Z,972.84
2018-09-26T04:23:42.741Z,972.74
2018-09-26T04:24:52.894Z,972.79
2018-09-26T04:26:02.751Z,972.8
2018-09-26T04:27:13.258Z,972.74
2018-09-26T04:28:22.987Z,972.74
2018-09-26T04:29:33.080Z,972.67
2018-09-26T04:30:43.157Z,972.58
2018-09-26T04:31:52.785Z,972.5
2018-09-26T04:33:02.795Z,972.5
2018-09-26T04:34:13.679Z,972.51
2018-09-26T04:35:23.812Z,972.47
2018-09-26T04:36:33.126Z,972.44
2018-09-26T04:37:43.260Z,972.41
2018-09-26T04:38:53.280Z,972.42
2018-09-26T04:40:03.572Z,972.36
2018-09-26T04:41:13.710Z,972.34
2018-09-26T04:42:23.907Z,972.39
2018-09-26T04:43:34.041Z,972.27
2018-09-26T04:44:44.177Z,972.23
2018-09-26T04:45:54.043Z,972.14
2018-09-26T04:47:03.914Z,972.14
2018-09-26T04:48:13.820Z,972.22
2018-09-26T04:49:23.673Z,972.25
2018-09-26T04:50:33.801Z,972.22
2018-09-26T04:51:44.072Z,972.16
2018-09-26T04:52:53.656Z,972.19
2018-09-26T04:54:02.789Z,972.2
2018-09-26T04:55:12.918Z,972.03
2018-09-26T04:56:22.781Z,971.84
2018-09-26T04:57:32.953Z,971.85
2018-09-26T04:58:43.207Z,971.86
2018-09-26T04:59:53.122Z,971.75
2018-09-26T05:01:02.982Z,971.68
2018-09-26T05:02:12.842Z,971.65
2018-09-26T05:03:22.424Z,971.7
2018-09-26T05:04:32.281Z,971.72
2018-09-26T05:05:42.191Z,971.73
2018-09-26T05:06:52.322Z,971.76
2018-09-26T05:08:01.906Z,971.74
2018-09-26T05:09:11.849Z,971.74
2018-09-26T05:10:21.706Z,971.75
2018-09-26T05:11:31.616Z,971.7
2018-09-26T05:12:41.199Z,971.69
2018-09-26T05:13:51.332Z,971.58
2018-09-26T05:15:01.189Z,971.45
2018-09-26T05:16:11.323Z,971.41
2018-09-26T05:17:21.566Z,971.34
2018-09-26T05:18:31.698Z,971.38
2018-09-26T05:19:41.560Z,971.43
2018-09-26T05:20:51.415Z,971.39
2018-09-26T05:22:00.723Z,971.48
2018-09-26T05:23:09.859Z,971.28
2018-09-26T05:24:19.973Z,971.15
2018-09-26T05:25:30.106Z,971.01
2018-09-26T05:26:39.963Z,970.91
2018-09-26T05:27:50.095Z,971
2018-09-26T05:29:00.283Z,971
2018-09-26T05:30:10.178Z,971.05
2018-09-26T05:31:20.566Z,971.01
2018-09-26T05:32:30.704Z,970.99
2018-09-26T05:33:40.298Z,970.92
2018-09-26T05:34:50.481Z,970.84
2018-09-26T05:36:00.340Z,970.81
2018-09-26T05:37:10.477Z,970.8
2018-09-26T05:38:20.336Z,970.78
2018-09-26T05:39:30.468Z,970.74
2018-09-26T05:40:40.649Z,970.76
2018-09-26T05:41:50.843Z,970.75
2018-09-26T05:43:01.237Z,970.67
2018-09-26T05:44:11.109Z,970.55
2018-09-26T05:45:21.296Z,970.46
2018-09-26T05:46:31.486Z,970.3
2018-09-26T05:47:41.079Z,970.18
2018-09-26T05:48:50.942Z,970.17
2018-09-26T05:50:01.074Z,970.22
2018-09-26T05:51:11.407Z,970.07
2018-09-26T05:52:21.393Z,970.02
2018-09-26T05:53:31.313Z,970.04
2018-09-26T05:54:41.703Z,970.05
2018-09-26T05:55:51.289Z,969.96
2018-09-26T05:57:01.428Z,969.83
2018-09-26T05:58:11.337Z,969.71
2018-09-26T05:59:20.921Z,969.79
2018-09-26T06:00:31.130Z,969.79
2018-09-26T06:01:41.262Z,969.73
2018-09-26T06:02:51.393Z,969.69
2018-09-26T06:04:01.590Z,969.59
2018-09-26T06:05:11.732Z,969.49
2018-09-26T06:06:22.016Z,969.43
2018-09-26T06:07:31.878Z,969.42
2018-09-26T06:08:41.742Z,969.39
2018-09-26T06:09:51.922Z,969.38
2018-09-26T06:11:01.504Z,969.28
2018-09-26T06:12:11.641Z,969.27
2018-09-26T06:13:21.278Z,969.23
2018-09-26T06:14:31.432Z,969.34
2018-09-26T06:15:41.064Z,969.42
2018-09-26T06:16:50.924Z,969.52
2018-09-26T06:18:00.782Z,969.54
2018-09-26T06:19:10.978Z,969.54
2018-09-26T06:20:20.838Z,969.51
2018-09-26T06:21:30.468Z,969.41
2018-09-26T06:22:40.598Z,969.41
2018-09-26T06:23:50.733Z,969.36
2018-09-26T06:25:00.864Z,969.47
2018-09-26T06:26:10.731Z,969.53
2018-09-26T06:27:20.645Z,969.49
2018-09-26T06:28:30.838Z,969.39
2018-09-26T06:29:40.695Z,969.36
2018-09-26T06:30:50.610Z,969.32
2018-09-26T06:32:00.742Z,969.35
2018-09-26T06:33:10.651Z,969.3
2018-09-26T06:34:20.514Z,969.21
2018-09-26T06:35:30.656Z,969.19
2018-09-26T06:36:40.241Z,969.15
2018-09-26T06:37:50.373Z,969.17
2018-09-26T06:39:00.232Z,969.19
2018-09-26T06:40:09.868Z,969.29
2018-09-26T06:41:20.114Z,969.33
2018-09-26T06:42:30.271Z,969.51
2018-09-26T06:43:39.806Z,969.5
2018-09-26T06:44:50.243Z,969.38
2018-09-26T06:46:00.373Z,969.25
2018-09-26T06:47:10.235Z,969.19
2018-09-26T06:48:20.461Z,969.26
2018-09-26T06:49:30.066Z,969.2
2018-09-26T06:50:39.711Z,969.22
2018-09-26T06:51:49.858Z,969.26
2018-09-26T06:52:59.456Z,969.34
2018-09-26T06:54:09.131Z,969.38
2018-09-26T06:55:19.332Z,969.34
2018-09-26T06:56:29.240Z,969.06
2018-09-26T06:57:39.382Z,968.98
2018-09-26T06:58:49.525Z,969.16
2018-09-26T06:59:59.392Z,969.19
2018-09-26T07:01:09.346Z,969.13
2018-09-26T07:02:18.936Z,969.14
2018-09-26T07:03:28.796Z,969.13
2018-09-26T07:04:38.932Z,969.08
2018-09-26T07:05:48.522Z,969.16
2018-09-26T07:06:58.383Z,969.17
2018-09-26T07:08:08.563Z,969.22
2018-09-26T07:09:18.697Z,969.23
2018-09-26T07:10:28.829Z,969.24
2018-09-26T07:11:38.690Z,969.3
2018-09-26T07:12:48.551Z,969.33
2018-09-26T07:13:58.132Z,969.37
2018-09-26T07:15:08.277Z,969.23
2018-09-26T07:16:18.415Z,969.22
2018-09-26T07:17:28.001Z,969.2
2018-09-26T07:18:37.864Z,969.09
2018-09-26T07:19:47.776Z,969.2
2018-09-26T07:20:57.634Z,969.19
2018-09-26T07:22:07.504Z,969.17
2018-09-26T07:23:17.643Z,969.13
2018-09-26T07:24:27.500Z,969.14
2018-09-26T07:25:37.692Z,969.02
2018-09-26T07:26:47.838Z,968.97
2018-09-26T07:27:57.706Z,968.89
2018-09-26T07:29:07.563Z,968.85
2018-09-26T07:30:17.420Z,968.82
2018-09-26T07:31:27.099Z,968.68
2018-09-26T07:32:37.818Z,968.71
2018-09-26T07:33:47.959Z,968.8
2018-09-26T07:34:57.268Z,968.79
2018-09-26T07:36:07.404Z,968.72
2018-09-26T07:37:17.319Z,968.65
2018-09-26T07:38:27.502Z,968.65
2018-09-26T07:39:38.125Z,968.71
2018-09-26T07:40:48.256Z,968.72
2018-09-26T07:41:57.837Z,968.71
2018-09-26T07:43:08.023Z,968.61
2018-09-26T07:44:17.889Z,968.67
2018-09-26T07:45:27.770Z,968.69
2018-09-26T07:46:38.740Z,968.68
2018-09-26T07:47:48.878Z,968.75
2018-09-26T07:48:58.790Z,968.79
2018-09-26T07:50:08.658Z,968.77
2018-09-26T07:51:18.796Z,968.74
2018-09-26T07:52:28.655Z,968.73
2018-09-26T07:53:38.523Z,968.64
2018-09-26T07:54:48.383Z,968.62
2018-09-26T07:55:58.242Z,968.58
2018-09-26T07:57:08.373Z,968.63
2018-09-26T07:58:18.237Z,968.7
2018-09-26T07:59:28.099Z,968.74
2018-09-26T08:00:37.737Z,968.7
2018-09-26T08:01:47.604Z,968.66
2018-09-26T08:02:57.466Z,968.68
2018-09-26T08:04:07.364Z,968.72
2018-09-26T08:05:17.501Z,968.65
2018-09-26T08:06:27.412Z,968.63
2018-09-26T08:07:37.280Z,968.62
2018-09-26T08:08:47.136Z,968.68
2018-09-26T08:09:56.993Z,968.57
2018-09-26T08:11:06.576Z,968.57
2018-09-26T08:12:16.686Z,968.52
2018-09-26T08:13:26.829Z,968.56
2018-09-26T08:14:36.695Z,968.55
2018-09-26T08:15:46.585Z,968.65
2018-09-26T08:16:56.444Z,968.6
2018-09-26T08:18:06.383Z,968.57
2018-09-26T08:19:16.641Z,968.48
2018-09-26T08:20:26.501Z,968.53
2018-09-26T08:21:36.362Z,968.56
2018-09-26T08:22:46.501Z,968.6
2018-09-26T08:23:56.763Z,968.61
2018-09-26T08:25:07.410Z,968.65
2018-09-26T08:26:17.546Z,968.59
2018-09-26T08:27:27.412Z,968.53
2018-09-26T08:28:37.278Z,968.57
2018-09-26T08:29:47.253Z,968.55
2018-09-26T08:30:57.689Z,968.57
2018-09-26T08:32:07.834Z,968.53
2018-09-26T08:33:17.693Z,968.55
2018-09-26T08:34:27.833Z,968.58
2018-09-26T08:35:37.697Z,968.54
2018-09-26T08:36:47.558Z,968.55
2018-09-26T08:37:57.707Z,968.48
2018-09-26T08:39:07.574Z,968.49
2018-09-26T08:40:17.163Z,968.52
2018-09-26T08:41:27.301Z,968.55
2018-09-26T08:42:36.614Z,968.6
2018-09-26T08:43:46.770Z,968.54
2018-09-26T08:44:56.872Z,968.5
2018-09-26T08:46:06.732Z,968.56
2018-09-26T08:47:16.872Z,968.46
2018-09-26T08:48:26.734Z,968.43
2018-09-26T08:49:36.874Z,968.45
2018-09-26T08:50:47.008Z,968.42
2018-09-26T08:51:57.143Z,968.4
2018-09-26T08:53:07.005Z,968.34
2018-09-26T08:54:16.873Z,968.31
2018-09-26T08:55:26.740Z,968.36
2018-09-26T08:56:36.326Z,968.46
2018-09-26T08:57:46.462Z,968.46
2018-09-26T08:58:56.599Z,968.4
2018-09-26T09:00:06.738Z,968.34
2018-09-26T09:01:16.328Z,968.36
2018-09-26T09:02:26.466Z,968.37
2018-09-26T09:03:36.052Z,968.43
2018-09-26T09:04:46.189Z,968.43
2018-09-26T09:05:55.802Z,968.55
2018-09-26T09:07:06.016Z,968.59
2018-09-26T09:08:15.601Z,968.49
2018-09-26T09:09:24.642Z,968.62
2018-09-26T09:10:34.506Z,968.59
2018-09-26T09:11:44.523Z,968.57
2018-09-26T09:12:53.907Z,968.57
2018-09-26T09:14:04.049Z,968.6
2018-09-26T09:15:14.506Z,968.61
2018-09-26T09:16:24.420Z,968.58
2018-09-26T09:17:34.564Z,968.65
2018-09-26T09:18:44.673Z,968.7
2018-09-26T09:19:54.561Z,968.66
2018-09-26T09:21:04.710Z,968.66
2018-09-26T09:22:14.297Z,968.8
2018-09-26T09:23:24.435Z,968.75
2018-09-26T09:24:34.589Z,968.65
2018-09-26T09:25:44.454Z,968.66
2018-09-26T09:26:54.301Z,968.63
2018-09-26T09:28:04.123Z,968.62
2018-09-26T09:29:13.359Z,968.63
2018-09-26T09:30:23.136Z,968.66
2018-09-26T09:31:33.181Z,968.65
2018-09-26T09:32:42.956Z,968.8
2018-09-26T09:33:52.731Z,968.71
2018-09-26T09:35:02.518Z,968.81
2018-09-26T09:36:12.106Z,968.85
2018-09-26T09:37:22.276Z,968.87
2018-09-26T09:38:31.872Z,968.92
2018-09-26T09:39:41.736Z,968.99
2018-09-26T09:40:51.606Z,968.99
2018-09-26T09:42:01.472Z,969.05
2018-09-26T09:43:11.333Z,969.17
2018-09-26T09:44:20.953Z,969.29
2018-09-26T09:45:31.666Z,969.36
2018-09-26T09:46:41.806Z,969.33
2018-09-26T09:47:51.635Z,969.32
2018-09-26T09:49:01.161Z,969.37
2018-09-26T09:50:10.684Z,969.45
2018-09-26T09:51:20.780Z,969.32
2018-09-26T09:52:30.350Z,969.29
2018-09-26T09:53:40.391Z,969.27
2018-09-26T09:54:50.156Z,969.23
2018-09-26T09:56:00.191Z,969.16
2018-09-26T09:57:10.360Z,969.25
2018-09-26T09:58:20.401Z,969.3
2018-09-26T09:59:30.440Z,969.33
2018-09-26T10:00:40.209Z,969.39
2018-09-26T10:01:50.253Z,969.45
2018-09-26T10:03:00.438Z,969.49
2018-09-26T10:04:11.675Z,969.48
2018-09-26T10:05:21.728Z,969.45
2018-09-26T10:06:31.766Z,969.51
2018-09-26T10:07:41.544Z,969.37
2018-09-26T10:08:51.618Z,969.48
2018-09-26T10:10:02.055Z,969.34
2018-09-26T10:11:11.821Z,969.29
2018-09-26T10:12:21.582Z,969.29
2018-09-26T10:13:31.623Z,969.27
2018-09-26T10:14:41.390Z,969.34
2018-09-26T10:15:51.427Z,969.38
2018-09-26T10:17:01.470Z,969.37
2018-09-26T10:18:10.967Z,969.38
2018-09-26T10:19:20.732Z,969.33
2018-09-26T10:20:30.767Z,969.25
2018-09-26T10:21:40.802Z,969.31
2018-09-26T10:22:50.305Z,969.45
2018-09-26T10:24:00.340Z,969.38
2018-09-26T10:25:10.458Z,969.44
2018-09-26T10:26:20.750Z,969.21
2018-09-26T10:27:30.814Z,969.27
2018-09-26T10:28:40.310Z,969.33
2018-09-26T10:29:50.084Z,969.45
2018-09-26T10:30:59.848Z,969.39
2018-09-26T10:32:09.403Z,969.39
2018-09-26T10:33:19.175Z,969.49
2018-09-26T10:34:29.213Z,969.42
2018-09-26T10:35:38.984Z,969.42
2018-09-26T10:36:49.043Z,969.54
2018-09-26T10:37:58.545Z,969.39
2018-09-26T10:39:08.631Z,969.4
2018-09-26T10:40:18.127Z,969.61
2018-09-26T10:41:27.629Z,969.61
2018-09-26T10:42:37.126Z,969.69
2018-09-26T10:43:47.165Z,969.72
2018-09-26T10:44:56.664Z,969.68
2018-09-26T10:46:06.166Z,969.7
2018-09-26T10:47:16.206Z,969.83
2018-09-26T10:48:25.972Z,969.9
2018-09-26T10:49:35.745Z,969.82
2018-09-26T10:50:45.554Z,969.82
2018-09-26T10:51:55.318Z,969.92
2018-09-26T10:53:04.820Z,969.7
2018-09-26T10:54:14.583Z,970.15
2018-09-26T10:55:24.364Z,970.01
2018-09-26T10:56:34.602Z,969.86
2018-09-26T10:57:44.955Z,970.17
2018-09-26T10:58:54.993Z,970.26
2018-09-26T11:00:04.768Z,970.4
2018-09-26T11:01:14.541Z,970.29
2018-09-26T11:02:24.369Z,970.37
2018-09-26T11:03:34.889Z,970.1
2018-09-26T11:04:44.928Z,970.24
2018-09-26T11:05:54.437Z,970.08
2018-09-26T11:07:03.966Z,970.37
2018-09-26T11:08:14.062Z,970.23
2018-09-26T11:09:24.254Z,970.28
2018-09-26T11:10:34.022Z,970.35
2018-09-26T11:11:44.058Z,970.27
2018-09-26T11:12:53.833Z,970.29
2018-09-26T11:14:03.072Z,970.37
2018-09-26T11:15:12.976Z,970.54
2018-09-26T11:16:22.974Z,970.29
2018-09-26T11:17:33.370Z,970.64
2018-09-26T11:18:43.639Z,970.91
2018-09-26T11:19:54.005Z,970.4
2018-09-26T11:21:03.834Z,970.38
2018-09-26T11:22:14.220Z,970.59
2018-09-26T11:23:24.060Z,970.67
2018-09-26T11:24:33.832Z,970.88
2018-09-26T11:25:43.875Z,970.85
2018-09-26T11:26:53.911Z,970.71
2018-09-26T11:28:03.414Z,970.84
2018-09-26T11:29:13.310Z,970.58
2018-09-26T11:30:23.085Z,970.59
2018-09-26T11:31:33.124Z,970.57
2018-09-26T11:32:43.170Z,970.7
2018-09-26T11:33:53.020Z,970.76
2018-09-26T11:35:02.476Z,970.82
2018-09-26T11:36:12.033Z,971.43
2018-09-26T11:37:22.078Z,971
2018-09-26T11:38:32.122Z,971.27
2018-09-26T11:39:41.900Z,970.93
2018-09-26T11:40:51.667Z,970.89
2018-09-26T11:42:01.718Z,971.36
2018-09-26T11:43:11.491Z,970.86
2018-09-26T11:44:21.621Z,971
2018-09-26T11:45:32.036Z,970.87
2018-09-26T11:46:41.540Z,971.03
2018-09-26T11:47:51.318Z,971.08
2018-09-26T11:49:01.385Z,970.67
2018-09-26T11:50:11.458Z,971.09
2018-09-26T11:51:21.243Z,970.92
2018-09-26T11:52:31.070Z,971.09
2018-09-26T11:53:41.267Z,971.26
2018-09-26T11:54:51.449Z,970.98
2018-09-26T11:56:01.681Z,970.89
2018-09-26T11:57:11.950Z,970.82
2018-09-26T11:58:21.888Z,971
2018-09-26T11:59:32.471Z,971.08
2018-09-26T12:00:42.624Z,971.18
2018-09-26T12:01:52.490Z,970.99
2018-09-26T12:03:02.695Z,971.2
2018-09-26T12:04:12.579Z,971.22
2018-09-26T12:05:23.213Z,971.27
2018-09-26T12:06:33.359Z,971.12
2018-09-26T12:07:43.515Z,971.76
2018-09-26T12:08:53.396Z,971.38
2018-09-26T12:10:03.539Z,971.42
2018-09-26T12:11:13.693Z,971.6
2018-09-26T12:12:23.879Z,971.45
2018-09-26T12:13:33.815Z,971.64
2018-09-26T12:14:44.138Z,971.58
2018-09-26T12:15:54.004Z,971.76
2018-09-26T12:17:04.166Z,971.62
2018-09-26T12:18:14.108Z,971.64
2018-09-26T12:19:24.640Z,971.73
2018-09-26T12:20:34.685Z,971.76
2018-09-26T12:21:44.589Z,971.74
2018-09-26T12:22:55.240Z,971.76
2018-09-26T12:24:04.570Z,971.73
2018-09-26T12:25:15.073Z,971.81
2018-09-26T12:26:25.774Z,971.79
2018-09-26T12:27:35.926Z,972.05
2018-09-26T12:28:46.355Z,971.97
2018-09-26T12:29:56.229Z,972.02
2018-09-26T12:31:06.137Z,971.95
2018-09-26T12:32:16.008Z,972.03
2018-09-26T12:33:26.160Z,972.1
2018-09-26T12:34:36.085Z,972.13
2018-09-26T12:35:45.513Z,972.17
2018-09-26T12:36:55.661Z,972.22
2018-09-26T12:38:05.811Z,972.15
2018-09-26T12:39:15.963Z,972.14
2018-09-26T12:40:25.954Z,972.14
2018-09-26T12:41:35.629Z,972.14
2018-09-26T12:42:45.559Z,972.31
2018-09-26T12:43:55.489Z,972.28
2018-09-26T12:45:05.642Z,972.36
2018-09-26T12:46:15.920Z,972.26
2018-09-26T12:47:26.759Z,972.29
2018-09-26T12:48:37.088Z,972.38
2018-09-26T12:49:47.041Z,972.06
2018-09-26T12:50:57.190Z,972.13
2018-09-26T12:52:07.145Z,972.08
2018-09-26T12:53:17.298Z,972.43
2018-09-26T12:54:27.395Z,972.35
2018-09-26T12:55:37.004Z,971.98
2018-09-26T12:56:47.161Z,972.12
2018-09-26T12:57:56.811Z,972.15
2018-09-26T12:59:06.776Z,972.18
2018-09-26T13:00:16.742Z,972.3
2018-09-26T13:01:27.127Z,972.12
2018-09-26T13:02:36.775Z,972.2
2018-09-26T13:03:47.387Z,972.25
2018-09-26T13:04:57.262Z,972.19
2018-09-26T13:06:06.864Z,972.27
2018-09-26T13:07:16.706Z,972.19
2018-09-26T13:08:26.687Z,972.26
2018-09-26T13:09:36.404Z,972.14
2018-09-26T13:10:45.998Z,972.11
2018-09-26T13:11:56.150Z,972.07
2018-09-26T13:13:06.330Z,972.23
2018-09-26T13:14:16.253Z,972.15
2018-09-26T13:15:26.828Z,972.14
2018-09-26T13:16:36.990Z,972.19
2018-09-26T13:17:46.859Z,972.24
2018-09-26T13:18:56.751Z,972.37
2018-09-26T13:20:07.519Z,972.4
2018-09-26T13:21:17.715Z,972.53
2018-09-26T13:22:27.864Z,972.59
2018-09-26T13:23:38.010Z,972.6
2018-09-26T13:24:48.162Z,972.85
2018-09-26T13:25:58.035Z,972.71
2018-09-26T13:27:08.000Z,972.7
2018-09-26T13:28:17.637Z,972.81
2018-09-26T13:29:28.040Z,972.57
2018-09-26T13:30:38.184Z,972.56
2018-09-26T13:31:48.327Z,972.97
2018-09-26T13:32:58.518Z,972.72
2018-09-26T13:34:08.404Z,972.88
2018-09-26T13:35:18.825Z,972.87
2018-09-26T13:36:28.968Z,972.78
2018-09-26T13:37:38.843Z,973.04
2018-09-26T13:38:49.109Z,972.82
2018-09-26T13:39:59.519Z,972.92
2018-09-26T13:41:09.761Z,973.06
2018-09-26T13:42:19.912Z,973.17
2018-09-26T13:43:30.503Z,973.13
2018-09-26T13:44:40.424Z,973.19
2018-09-26T13:45:50.725Z,973.31
2018-09-26T13:47:00.685Z,973.16
2018-09-26T13:48:10.846Z,973.28
2018-09-26T13:49:21.434Z,973.22
2018-09-26T13:50:31.352Z,973.35
2018-09-26T13:51:41.221Z,973.3
2018-09-26T13:52:51.085Z,973.3
2018-09-26T13:54:01.311Z,973.22
2018-09-26T13:55:11.921Z,973.15
2018-09-26T13:56:21.847Z,973.35
2018-09-26T13:57:31.541Z,973.4
2018-09-26T13:58:41.679Z,973.5
2018-09-26T13:59:51.545Z,973.87
2018-09-26T14:01:01.692Z,974
2018-09-26T14:02:11.421Z,973.6
2018-09-26T14:03:21.983Z,973.71
2018-09-26T14:04:32.122Z,973.79
2018-09-26T14:05:42.263Z,973.71
2018-09-26T14:06:52.136Z,973.99
2018-09-26T14:08:01.773Z,973.91
2018-09-26T14:09:11.645Z,973.89
2018-09-26T14:10:21.782Z,974.03
2018-09-26T14:11:32.108Z,973.82
2018-09-26T14:12:42.254Z,973.78
2018-09-26T14:13:52.445Z,974.04
2018-09-26T14:15:02.583Z,974
2018-09-26T14:16:11.900Z,973.82
2018-09-26T14:17:21.791Z,973.85
2018-09-26T14:18:31.982Z,973.85
2018-09-26T14:19:42.127Z,973.71
2018-09-26T14:20:52.001Z,974.35
2018-09-26T14:22:01.594Z,973.76
2018-09-26T14:23:12.047Z,974.13
2018-09-26T14:24:22.701Z,974.4
2018-09-26T14:25:32.887Z,974.4
2018-09-26T14:26:42.751Z,974.2
2018-09-26T14:27:52.347Z,974.02
2018-09-26T14:29:02.221Z,973.98
2018-09-26T14:30:12.631Z,974.19
2018-09-26T14:31:23.226Z,973.92
2018-09-26T14:32:32.820Z,973.96
2018-09-26T14:33:42.992Z,974.32
2018-09-26T14:34:53.434Z,974.14
2018-09-26T14:36:03.581Z,974.21